createdAt,value
2019-02-04T00:01:46.908Z,10.30
2019-02-04T00:04:15.505Z,9.93
2019-02-04T00:06:44.078Z,11.35
2019-02-04T00:09:12.690Z,15.60
2019-02-04T00:11:41.248Z,10.55
2019-02-04T00:14:10.236Z,9.05
2019-02-04T00:16:40.864Z,8.55
2019-02-04T00:19:09.179Z,8.43
2019-02-04T00:21:37.742Z,8.93
2019-02-04T00:24:06.374Z,10.05
2019-02-04T00:26:34.935Z,10.98
2019-02-04T00:29:03.773Z,15.78
2019-02-04T00:31:32.429Z,15.35
2019-02-04T00:34:00.992Z,17.37
2019-02-04T00:36:29.675Z,15.03
2019-02-04T00:38:58.243Z,15.45
2019-02-04T00:41:27.146Z,16.65
2019-02-04T00:43:55.983Z,17.15
2019-02-04T00:46:24.776Z,13.75
2019-02-04T00:48:53.351Z,16.20
2019-02-04T00:51:22.153Z,12.88
2019-02-04T00:53:50.718Z,11.50
2019-02-04T00:56:19.313Z,11.53
2019-02-04T00:58:47.876Z,10.93
2019-02-04T01:01:16.456Z,11.75
2019-02-04T01:03:45.267Z,11.08
2019-02-04T01:06:13.836Z,11.22
2019-02-04T01:08:42.407Z,11.03
2019-02-04T01:11:10.981Z,17.55
2019-02-04T01:13:39.541Z,18.23
2019-02-04T01:16:08.682Z,15.35
2019-02-04T01:18:37.339Z,12.80
2019-02-04T01:21:05.998Z,11.78
2019-02-04T01:23:34.580Z,15.80
2019-02-04T01:26:03.220Z,18.05
2019-02-04T01:28:34.889Z,15.95
2019-02-04T01:31:03.454Z,13.65
2019-02-04T01:33:32.012Z,14.83
2019-02-04T01:36:00.814Z,16.30
2019-02-04T01:38:29.380Z,16.02
2019-02-04T01:40:57.948Z,18.35
2019-02-04T01:43:26.690Z,18.90
2019-02-04T01:45:55.566Z,20.20
2019-02-04T01:48:24.811Z,20.23
2019-02-04T01:50:53.371Z,19.00
2019-02-04T01:53:21.936Z,18.48
2019-02-04T01:55:50.737Z,15.75
2019-02-04T01:58:20.798Z,18.00
2019-02-04T02:00:49.430Z,19.67
2019-02-04T02:03:17.996Z,18.60
2019-02-04T02:05:46.812Z,20.20
2019-02-04T02:08:15.391Z,16.73
2019-02-04T02:10:44.023Z,10.85
2019-02-04T02:13:12.871Z,11.55
2019-02-04T02:15:41.444Z,10.80
2019-02-04T02:18:10.043Z,9.90
2019-02-04T02:20:38.603Z,11.40
2019-02-04T02:23:07.163Z,11.85
2019-02-04T02:25:35.729Z,13.03
2019-02-04T02:28:04.973Z,16.12
2019-02-04T02:30:33.871Z,15.48
2019-02-04T02:33:02.462Z,15.30
2019-02-04T02:35:31.083Z,16.45
2019-02-04T02:37:59.739Z,21.15
2019-02-04T02:40:30.679Z,19.37
2019-02-04T02:42:59.712Z,19.00
2019-02-04T02:45:28.587Z,19.90
2019-02-04T02:47:57.219Z,17.85
2019-02-04T02:50:25.783Z,17.40
2019-02-04T02:52:54.735Z,19.17
2019-02-04T02:55:23.403Z,19.20
2019-02-04T02:57:52.288Z,18.80
2019-02-04T03:00:22.798Z,18.35
2019-02-04T03:02:51.433Z,17.10
2019-02-04T03:05:20.074Z,17.73
2019-02-04T03:07:48.651Z,18.48
2019-02-04T03:10:19.866Z,16.37
2019-02-04T03:12:48.704Z,17.73
2019-02-04T03:15:17.363Z,14.80
2019-02-04T03:17:51.958Z,14.03
2019-02-04T03:20:16.831Z,14.68
2019-02-04T03:22:45.629Z,17.15
2019-02-04T03:25:14.286Z,14.68
2019-02-04T03:27:43.369Z,14.68
2019-02-04T03:30:16.078Z,15.00
2019-02-04T03:32:44.652Z,12.00
2019-02-04T03:35:13.393Z,12.28
2019-02-04T03:37:42.040Z,12.78
2019-02-04T03:40:12.398Z,12.37
2019-02-04T03:42:40.965Z,13.32
2019-02-04T03:45:10.273Z,12.60
2019-02-04T03:47:39.096Z,11.50
2019-02-04T03:50:08.962Z,11.80
2019-02-04T03:52:37.611Z,12.78
2019-02-04T03:55:07.745Z,12.35
2019-02-04T03:57:36.468Z,13.50
2019-02-04T04:00:08.476Z,12.85
2019-02-04T04:02:37.066Z,11.65
2019-02-04T04:05:06.340Z,13.50
2019-02-04T04:07:34.926Z,13.55
2019-02-04T04:10:04.022Z,14.43
2019-02-04T04:12:32.838Z,14.78
2019-02-04T04:15:01.415Z,13.38
2019-02-04T04:17:29.981Z,12.65
2019-02-04T04:19:58.579Z,11.97
2019-02-04T04:22:27.128Z,14.80
2019-02-04T04:24:56.079Z,12.85
2019-02-04T04:27:24.646Z,12.13
2019-02-04T04:29:53.462Z,14.18
2019-02-04T04:32:22.042Z,12.47
2019-02-04T04:34:50.607Z,11.15
2019-02-04T04:37:19.184Z,10.28
2019-02-04T04:39:48.029Z,11.93
2019-02-04T04:42:16.625Z,11.05
2019-02-04T04:44:45.184Z,10.40
2019-02-04T04:47:13.842Z,11.88
2019-02-04T04:49:43.089Z,12.03
2019-02-04T04:52:11.696Z,11.45
2019-02-04T04:54:40.545Z,10.10
2019-02-04T04:57:09.109Z,10.48
2019-02-04T04:59:37.682Z,10.28
2019-02-04T05:02:06.330Z,11.08
2019-02-04T05:04:34.913Z,9.90
2019-02-04T05:07:03.497Z,11.10
2019-02-04T05:09:32.329Z,9.38
2019-02-04T05:12:00.966Z,11.55
2019-02-04T05:14:29.940Z,10.40
2019-02-04T05:16:58.503Z,10.15
2019-02-04T05:19:27.144Z,11.45
2019-02-04T05:21:55.758Z,11.55
2019-02-04T05:24:24.591Z,10.98
2019-02-04T05:26:53.147Z,10.00
2019-02-04T05:29:21.743Z,11.05
2019-02-04T05:31:50.507Z,12.40
2019-02-04T05:34:19.077Z,9.90
2019-02-04T05:36:47.696Z,11.80
2019-02-04T05:39:16.388Z,9.38
2019-02-04T05:41:45.067Z,9.60
2019-02-04T05:44:13.636Z,9.05
2019-02-04T05:46:42.223Z,9.03
2019-02-04T05:49:10.803Z,8.68
2019-02-04T05:51:39.384Z,7.60
2019-02-04T05:54:07.972Z,8.23
2019-02-04T05:56:36.552Z,8.30
2019-02-04T05:59:05.285Z,7.50
2019-02-04T06:01:34.390Z,8.78
2019-02-04T06:04:03.459Z,8.88
2019-02-04T06:06:32.360Z,9.53
2019-02-04T06:09:01.341Z,10.43
2019-02-04T06:11:30.012Z,10.10
2019-02-04T06:13:58.763Z,11.57
2019-02-04T06:16:27.436Z,9.73
2019-02-04T06:19:01.072Z,8.33
2019-02-04T06:21:26.529Z,9.75
2019-02-04T06:23:55.225Z,10.50
2019-02-04T06:26:24.148Z,10.82
2019-02-04T06:28:52.787Z,10.38
2019-02-04T06:31:21.642Z,9.25
2019-02-04T06:33:50.312Z,10.28
2019-02-04T06:36:19.361Z,10.15
2019-02-04T06:38:47.990Z,10.65
2019-02-04T06:41:16.599Z,9.35
2019-02-04T06:43:45.538Z,8.38
2019-02-04T06:46:14.131Z,10.35
2019-02-04T06:48:42.751Z,9.10
2019-02-04T06:51:11.673Z,8.93
2019-02-04T06:53:40.312Z,9.20
2019-02-04T06:56:09.315Z,9.13
2019-02-04T06:58:38.160Z,8.58
2019-02-04T07:01:06.913Z,8.10
2019-02-04T07:03:35.812Z,8.65
2019-02-04T07:06:04.447Z,7.58
2019-02-04T07:08:33.281Z,7.72
2019-02-04T07:11:02.390Z,7.72
2019-02-04T07:13:30.985Z,6.75
2019-02-04T07:15:59.652Z,7.03
2019-02-04T07:18:28.539Z,7.85
2019-02-04T07:20:57.208Z,6.83
2019-02-04T07:23:25.981Z,6.05
2019-02-04T07:25:54.737Z,7.42
2019-02-04T07:28:23.416Z,6.55
2019-02-04T07:30:52.136Z,6.83
2019-02-04T07:33:20.830Z,7.90
2019-02-04T07:35:49.557Z,6.50
2019-02-04T07:38:18.279Z,7.15
2019-02-04T07:40:47.038Z,7.08
2019-02-04T07:43:16.121Z,7.08
2019-02-04T07:45:44.720Z,6.37
2019-02-04T07:48:13.427Z,7.30
2019-02-04T07:50:42.119Z,6.40
2019-02-04T07:53:11.040Z,7.60
2019-02-04T07:55:39.707Z,6.35
2019-02-04T07:58:08.732Z,6.08
2019-02-04T08:00:37.454Z,6.10
2019-02-04T08:03:06.126Z,5.85
2019-02-04T08:05:34.823Z,4.97
2019-02-04T08:08:03.761Z,6.17
2019-02-04T08:10:32.726Z,5.40
2019-02-04T08:13:02.180Z,4.80
2019-02-04T08:15:33.370Z,4.60
2019-02-04T08:18:02.055Z,5.47
2019-02-04T08:20:30.736Z,5.45
2019-02-04T08:22:59.463Z,5.12
2019-02-04T08:25:28.275Z,5.87
2019-02-04T08:27:57.220Z,5.35
2019-02-04T08:30:28.009Z,6.40
2019-02-04T08:32:56.736Z,4.80
2019-02-04T08:35:25.746Z,4.83
2019-02-04T08:37:54.403Z,5.30
2019-02-04T08:40:23.147Z,4.80
2019-02-04T08:42:52.161Z,5.35
2019-02-04T08:45:20.818Z,5.00
2019-02-04T08:47:49.673Z,4.90
2019-02-04T08:50:19.178Z,4.92
2019-02-04T08:52:48.236Z,5.10
2019-02-04T08:55:17.006Z,5.10
2019-02-04T08:57:45.865Z,4.33
2019-02-04T09:00:16.864Z,4.65
2019-02-04T09:02:45.577Z,5.40
2019-02-04T09:05:14.620Z,4.60
2019-02-04T09:07:43.490Z,4.90
2019-02-04T09:10:18.277Z,4.83
2019-02-04T09:12:46.899Z,4.60
2019-02-04T09:15:16.437Z,4.00
2019-02-04T09:17:45.006Z,4.03
2019-02-04T09:20:15.122Z,4.70
2019-02-04T09:22:43.838Z,3.93
2019-02-04T09:25:13.243Z,4.20
2019-02-04T09:27:44.853Z,4.53
2019-02-04T09:30:23.717Z,4.58
2019-02-04T09:32:52.800Z,4.30
2019-02-04T09:35:21.797Z,4.30
2019-02-04T09:37:50.654Z,3.63
2019-02-04T09:40:44.852Z,4.37
2019-02-04T09:43:13.695Z,3.70
2019-02-04T09:45:43.749Z,3.67
2019-02-04T09:48:15.893Z,3.70
2019-02-04T09:50:44.816Z,3.80
2019-02-04T09:53:13.626Z,3.33
2019-02-04T09:55:42.269Z,3.27
2019-02-04T09:58:10.911Z,3.27
2019-02-04T10:00:39.541Z,3.90
2019-02-04T10:03:08.309Z,3.43
2019-02-04T10:05:37.250Z,3.17
2019-02-04T10:08:06.440Z,3.90
2019-02-04T10:10:35.138Z,3.43
2019-02-04T10:13:03.901Z,3.73
2019-02-04T10:15:34.607Z,3.40
2019-02-04T10:18:03.244Z,3.53
2019-02-04T10:20:34.537Z,3.33
2019-02-04T10:23:02.082Z,3.73
2019-02-04T10:25:32.757Z,3.33
2019-02-04T10:28:01.427Z,3.37
2019-02-04T10:30:30.146Z,3.43
2019-02-04T10:32:58.882Z,3.43
2019-02-04T10:35:27.649Z,3.70
2019-02-04T10:37:56.548Z,3.67
2019-02-04T10:40:25.853Z,4.40
2019-02-04T10:42:54.667Z,4.67
2019-02-04T10:45:23.363Z,3.53
2019-02-04T10:47:52.096Z,3.57
2019-02-04T10:50:46.103Z,4.47
2019-02-04T10:53:10.655Z,4.47
2019-02-04T10:55:39.499Z,4.57
2019-02-04T10:58:09.693Z,4.90
2019-02-04T11:00:39.402Z,4.60
2019-02-04T11:03:08.317Z,4.87
2019-02-04T11:05:37.544Z,4.77
2019-02-04T11:08:07.042Z,5.17
2019-02-04T11:10:36.736Z,4.40
2019-02-04T11:13:08.787Z,5.40
2019-02-04T11:15:37.624Z,5.07
2019-02-04T11:18:06.662Z,5.10
2019-02-04T11:20:35.773Z,5.37
2019-02-04T11:23:05.181Z,4.83
2019-02-04T11:25:33.762Z,4.90
2019-02-04T11:28:02.331Z,4.77
2019-02-04T11:30:33.253Z,5.17
2019-02-04T11:33:01.998Z,5.27
2019-02-04T11:35:30.805Z,4.93
2019-02-04T11:37:59.443Z,5.40
2019-02-04T11:40:33.566Z,5.10
2019-02-04T11:43:02.339Z,5.00
2019-02-04T11:45:31.400Z,4.70
2019-02-04T11:48:00.520Z,4.90
2019-02-04T11:50:29.307Z,4.10
2019-02-04T11:52:57.832Z,5.47
2019-02-04T11:55:26.781Z,5.17
2019-02-04T11:57:55.738Z,5.27
2019-02-04T12:00:25.982Z,5.27
2019-02-04T12:02:56.946Z,4.70
2019-02-04T12:05:25.532Z,5.00
2019-02-04T12:07:54.241Z,4.80
2019-02-04T12:10:29.154Z,5.37
2019-02-04T12:12:58.607Z,4.93
2019-02-04T12:15:27.270Z,4.63
2019-02-04T12:17:55.916Z,4.90
2019-02-04T12:20:24.487Z,4.20
2019-02-04T12:22:53.048Z,5.10
2019-02-04T12:25:23.203Z,4.50
2019-02-04T12:27:52.406Z,5.70
2019-02-04T12:30:23.579Z,4.90
2019-02-04T12:32:52.149Z,4.50
2019-02-04T12:35:20.908Z,5.00
2019-02-04T12:37:49.789Z,4.90
2019-02-04T12:40:18.701Z,4.63
2019-02-04T12:42:47.939Z,4.43
2019-02-04T12:45:25.887Z,5.27
2019-02-04T12:47:54.976Z,4.80
2019-02-04T12:50:24.141Z,4.50
2019-02-04T12:52:52.880Z,4.10
2019-02-04T12:55:22.947Z,5.10
2019-02-04T12:57:51.986Z,4.67
2019-02-04T13:00:22.935Z,4.83
2019-02-04T13:02:52.326Z,4.20
2019-02-04T13:05:24.257Z,5.00
2019-02-04T13:07:53.148Z,4.00
2019-02-04T13:10:22.614Z,4.43
2019-02-04T13:12:51.675Z,4.27
2019-02-04T13:15:21.112Z,4.33
2019-02-04T13:17:49.786Z,4.70
2019-02-04T13:20:20.727Z,5.17
2019-02-04T13:22:49.501Z,5.00
2019-02-04T13:25:20.663Z,5.23
2019-02-04T13:27:49.354Z,4.43
2019-02-04T13:30:20.453Z,4.40
2019-02-04T13:32:49.337Z,5.60
2019-02-04T13:35:18.444Z,5.33
2019-02-04T13:37:47.032Z,5.07
2019-02-04T13:40:18.688Z,5.13
2019-02-04T13:42:47.331Z,5.20
2019-02-04T13:45:17.614Z,5.50
2019-02-04T13:47:46.707Z,5.33
2019-02-04T13:50:16.199Z,5.57
2019-02-04T13:55:39.797Z,5.10
2019-02-04T13:58:08.643Z,5.00
2019-02-04T14:00:38.061Z,5.40
2019-02-04T14:03:09.585Z,5.42
2019-02-04T14:05:38.241Z,5.77
2019-02-04T14:08:07.246Z,4.60
2019-02-04T14:10:37.837Z,4.90
2019-02-04T14:13:06.901Z,4.47
2019-02-04T14:15:54.680Z,5.40
2019-02-04T14:18:26.489Z,4.47
2019-02-04T14:20:53.676Z,4.75
2019-02-04T14:23:22.502Z,4.50
2019-02-04T14:25:51.154Z,4.60
2019-02-04T14:28:20.248Z,5.05
2019-02-04T14:30:49.222Z,4.37
2019-02-04T14:33:17.816Z,5.30
2019-02-04T14:35:46.374Z,4.53
2019-02-04T14:38:14.945Z,5.10
2019-02-04T14:40:44.035Z,4.25
2019-02-04T14:43:24.922Z,4.17
2019-02-04T14:46:25.013Z,4.17
2019-02-04T14:49:35.188Z,4.12
2019-02-04T14:52:35.024Z,5.10
2019-02-04T14:55:39.257Z,4.90
2019-02-04T14:58:13.582Z,4.80
2019-02-04T15:01:19.337Z,4.70
2019-02-04T15:04:03.234Z,5.60
2019-02-04T15:07:10.318Z,5.58
2019-02-04T15:10:21.782Z,5.35
2019-02-04T15:13:15.021Z,5.55
2019-02-04T15:16:15.316Z,6.70
2019-02-04T15:19:31.412Z,5.35
2019-02-04T15:22:33.443Z,5.55
2019-02-04T15:25:20.145Z,5.50
2019-02-04T15:28:11.541Z,4.70
2019-02-04T15:31:15.326Z,6.10
2019-02-04T15:34:25.791Z,5.33
2019-02-04T15:37:13.875Z,5.40
2019-02-04T15:40:15.640Z,5.62
2019-02-04T15:43:20.047Z,5.67
2019-02-04T15:46:29.676Z,5.90
2019-02-04T15:49:32.995Z,5.05
2019-02-04T15:52:01.891Z,4.72
2019-02-04T15:54:30.697Z,5.85
2019-02-04T15:56:59.308Z,5.80
2019-02-04T15:59:28.262Z,6.03
2019-02-04T16:01:57.072Z,5.00
2019-02-04T16:04:31.044Z,5.30
2019-02-04T16:06:59.758Z,6.20
2019-02-04T16:09:28.682Z,5.22
2019-02-04T16:11:57.470Z,5.87
2019-02-04T16:14:26.930Z,6.53
2019-02-04T16:16:56.152Z,5.10
2019-02-04T16:19:24.894Z,6.08
2019-02-04T16:21:53.513Z,5.20
2019-02-04T16:24:22.235Z,5.30
2019-02-04T16:26:51.093Z,5.95
2019-02-04T16:29:19.633Z,5.28
2019-02-04T16:31:48.799Z,5.20
2019-02-04T16:34:17.572Z,6.25
2019-02-04T16:36:46.261Z,5.45
2019-02-04T16:39:14.957Z,5.50
2019-02-04T16:41:43.791Z,5.35
2019-02-04T16:44:13.449Z,4.92
2019-02-04T16:46:42.283Z,6.33
2019-02-04T16:49:10.982Z,5.53
2019-02-04T16:51:39.960Z,5.30
2019-02-04T16:54:08.553Z,5.53
2019-02-04T16:56:37.145Z,5.20
2019-02-04T16:59:05.829Z,5.15
2019-02-04T17:01:34.724Z,5.97
2019-02-04T17:04:03.336Z,4.75
2019-02-04T17:06:32.110Z,5.97
2019-02-04T17:09:02.301Z,5.45
2019-02-04T17:11:30.976Z,5.85
2019-02-04T17:13:59.611Z,5.60
2019-02-04T17:16:28.415Z,6.00
2019-02-04T17:18:57.019Z,5.97
2019-02-04T17:21:25.923Z,5.45
2019-02-04T17:23:54.524Z,5.53
2019-02-04T17:26:23.196Z,5.47
2019-02-04T17:28:51.830Z,5.40
2019-02-04T17:31:20.422Z,6.30
2019-02-04T17:33:49.382Z,6.28
2019-02-04T17:36:17.963Z,6.50
2019-02-04T17:38:46.548Z,6.72
2019-02-04T17:41:15.293Z,6.08
2019-02-04T17:43:43.820Z,6.03
2019-02-04T17:46:12.435Z,6.22
2019-02-04T17:48:41.269Z,7.05
2019-02-04T17:51:09.933Z,6.47
2019-02-04T17:53:38.505Z,7.72
2019-02-04T17:56:08.711Z,6.85
2019-02-04T17:58:37.364Z,6.58
2019-02-04T18:01:06.339Z,7.55
2019-02-04T18:03:35.143Z,7.10
2019-02-04T18:06:03.842Z,7.28
2019-02-04T18:08:32.431Z,7.05
2019-02-04T18:11:01.002Z,6.50
2019-02-04T18:13:29.853Z,6.65
2019-02-04T18:15:58.456Z,7.08
2019-02-04T18:18:27.122Z,7.67
2019-02-04T18:20:55.779Z,6.12
2019-02-04T18:23:24.422Z,6.62
2019-02-04T18:25:53.186Z,6.15
2019-02-04T18:28:21.750Z,6.53
2019-02-04T18:30:50.326Z,6.97
2019-02-04T18:33:18.893Z,6.20
2019-02-04T18:35:47.706Z,6.12
2019-02-04T18:38:16.528Z,6.20
2019-02-04T18:40:45.465Z,6.83
2019-02-04T18:43:14.050Z,6.53
2019-02-04T18:45:42.692Z,6.53
2019-02-04T18:48:11.366Z,6.60
2019-02-04T18:50:40.367Z,6.20
2019-02-04T18:53:09.047Z,6.25
2019-02-04T18:55:37.735Z,6.72
2019-02-04T18:58:06.492Z,6.95
2019-02-04T19:00:36.215Z,6.53
2019-02-04T19:03:16.802Z,7.35
2019-02-04T19:05:36.552Z,6.20
2019-02-04T19:08:06.329Z,7.30
2019-02-04T19:10:35.254Z,6.45
2019-02-04T19:13:03.986Z,6.30
2019-02-04T19:15:32.566Z,6.92
2019-02-04T19:18:04.506Z,6.53
2019-02-04T19:20:33.070Z,6.65
2019-02-04T19:23:01.661Z,6.33
2019-02-04T19:25:30.230Z,7.12
2019-02-04T19:27:58.819Z,7.05
2019-02-04T19:30:33.310Z,7.95
2019-02-04T19:33:02.101Z,7.15
2019-02-04T19:35:30.663Z,6.12
2019-02-04T19:37:59.255Z,7.35
2019-02-04T19:40:27.953Z,6.67
2019-02-04T19:42:56.589Z,7.40
2019-02-04T19:45:25.351Z,6.53
2019-02-04T19:47:54.274Z,7.17
2019-02-04T19:50:25.360Z,7.33
2019-02-04T19:52:54.033Z,8.23
2019-02-04T19:55:22.890Z,7.65
2019-02-04T19:57:51.542Z,6.90
2019-02-04T20:00:20.759Z,6.65
2019-02-04T20:02:49.895Z,6.85
2019-02-04T20:05:20.019Z,7.28
2019-02-04T20:07:49.117Z,6.90
2019-02-04T20:10:19.100Z,6.08
2019-02-04T20:12:48.085Z,6.03
2019-02-04T20:15:19.676Z,6.45
2019-02-04T20:17:48.478Z,7.35
2019-02-04T20:20:17.208Z,6.30
2019-02-04T20:22:46.034Z,5.95
2019-02-04T20:25:17.388Z,6.92
2019-02-04T20:27:46.046Z,7.05
2019-02-04T20:30:20.106Z,7.03
2019-02-04T20:32:48.909Z,6.40
2019-02-04T20:35:17.547Z,6.08
2019-02-04T20:37:46.358Z,5.47
2019-02-04T20:40:17.234Z,5.92
2019-02-04T20:42:45.865Z,6.37
2019-02-04T20:45:14.813Z,5.30
2019-02-04T20:47:43.586Z,6.10
2019-02-04T20:50:15.592Z,6.10
2019-02-04T20:52:44.177Z,6.28
2019-02-04T20:55:13.093Z,6.17
2019-02-04T20:57:41.690Z,5.92
2019-02-04T21:00:13.618Z,6.15
2019-02-04T21:02:42.214Z,7.12
2019-02-04T21:05:10.955Z,5.85
2019-02-04T21:07:39.612Z,5.95
2019-02-04T21:10:10.747Z,6.10
2019-02-04T21:12:39.350Z,6.15
2019-02-04T21:15:08.934Z,5.87
2019-02-04T21:17:37.655Z,5.75
2019-02-04T21:20:08.132Z,6.15
2019-02-04T21:22:36.755Z,5.33
2019-02-04T21:25:06.330Z,5.80
2019-02-04T21:27:35.358Z,5.50
2019-02-04T21:30:05.214Z,6.00
2019-02-04T21:32:33.831Z,5.72
2019-02-04T21:35:02.407Z,5.92
2019-02-04T21:37:31.220Z,4.83
2019-02-04T21:39:59.891Z,5.75
2019-02-04T21:42:28.505Z,6.30
2019-02-04T21:44:57.101Z,6.12
2019-02-04T21:47:25.835Z,6.12
2019-02-04T21:49:54.448Z,6.40
2019-02-04T21:52:23.033Z,5.35
2019-02-04T21:54:51.615Z,5.45
2019-02-04T21:57:20.241Z,4.92
2019-02-04T21:59:49.293Z,5.45
2019-02-04T22:02:18.112Z,5.53
2019-02-04T22:04:46.678Z,4.90
2019-02-04T22:07:15.265Z,4.85
2019-02-04T22:09:43.838Z,5.03
2019-02-04T22:12:12.429Z,5.60
2019-02-04T22:14:40.999Z,6.15
2019-02-04T22:17:09.908Z,7.78
2019-02-04T22:19:38.466Z,4.85
2019-02-04T22:22:07.114Z,4.92
2019-02-04T22:24:35.686Z,5.50
2019-02-04T22:27:04.248Z,5.15
2019-02-04T22:29:33.237Z,4.35
2019-02-04T22:32:01.833Z,4.30
2019-02-04T22:34:30.579Z,4.42
2019-02-04T22:36:59.735Z,4.50
2019-02-04T22:39:28.399Z,4.17
2019-02-04T22:41:57.025Z,3.50
2019-02-04T22:44:25.617Z,3.72
2019-02-04T22:46:54.225Z,4.33
2019-02-04T22:49:23.037Z,3.20
2019-02-04T22:51:51.739Z,3.47
2019-02-04T22:54:20.304Z,4.00
2019-02-04T22:56:48.872Z,4.12
2019-02-04T22:59:17.695Z,4.45
2019-02-04T23:01:52.261Z,4.62
2019-02-04T23:04:20.939Z,4.55
2019-02-04T23:06:49.598Z,4.42
2019-02-04T23:09:18.298Z,4.35
2019-02-04T23:11:46.938Z,4.55
2019-02-04T23:14:15.606Z,4.40
2019-02-04T23:16:44.168Z,3.67
2019-02-04T23:19:13.170Z,4.17
2019-02-04T23:21:41.749Z,3.58
2019-02-04T23:24:10.430Z,4.20
2019-02-04T23:26:39.013Z,3.95
2019-02-04T23:29:07.640Z,3.92
2019-02-04T23:31:36.515Z,3.70
2019-02-04T23:34:05.347Z,4.00
2019-02-04T23:36:34.083Z,3.35
2019-02-04T23:39:02.931Z,3.87
2019-02-04T23:41:31.503Z,3.92
2019-02-04T23:44:00.073Z,3.92
2019-02-04T23:46:28.638Z,4.90
2019-02-04T23:48:57.215Z,3.77
2019-02-04T23:51:26.138Z,4.08
2019-02-04T23:53:54.770Z,4.03
2019-02-04T23:56:23.380Z,4.37
2019-02-04T23:58:51.935Z,4.90
